createdAt,value
2023-03-29T00:00:50.964Z,5.38
2023-03-29T00:04:56.760Z,2.38
2023-03-29T00:07:04.740Z,2.38
2023-03-29T00:09:09.159Z,3.45
2023-03-29T00:11:12.593Z,2.10
2023-03-29T00:13:14.999Z,2.95
2023-03-29T00:15:17.306Z,3.13
2023-03-29T00:17:19.604Z,2.42
2023-03-29T00:19:21.825Z,2.40
2023-03-29T00:21:24.027Z,2.40
2023-03-29T00:23:26.572Z,1.70
2023-03-29T00:25:28.746Z,1.75
2023-03-29T00:27:31.064Z,2.20
2023-03-29T00:29:33.684Z,5.95
2023-03-29T00:33:38.868Z,9.73
2023-03-29T00:35:42.546Z,2.10
2023-03-29T00:37:47.124Z,3.95
2023-03-29T00:39:49.328Z,1.60
2023-03-29T00:41:52.092Z,1.58
2023-03-29T00:43:54.344Z,1.77
2023-03-29T00:45:56.885Z,3.13
2023-03-29T00:48:02.732Z,1.80
2023-03-29T00:50:16.316Z,1.60
2023-03-29T00:52:21.463Z,2.75
2023-03-29T00:54:24.956Z,1.63
2023-03-29T00:56:32.093Z,1.75
2023-03-29T00:58:36.322Z,1.80
2023-03-29T01:00:41.921Z,1.60
2023-03-29T01:02:44.487Z,1.63
2023-03-29T01:07:00.262Z,1.70
2023-03-29T01:09:04.085Z,1.88
2023-03-29T01:11:26.684Z,1.55
2023-03-29T01:13:49.123Z,1.63
2023-03-29T01:15:51.337Z,1.63
2023-03-29T01:17:55.697Z,1.73
2023-03-29T01:20:00.495Z,1.90
2023-03-29T01:22:13.569Z,1.92
2023-03-29T01:24:22.224Z,1.58
2023-03-29T01:26:42.737Z,2.78
2023-03-29T01:28:52.459Z,1.80
2023-03-29T01:31:02.274Z,1.77
2023-03-29T01:33:13.399Z,1.73
2023-03-29T01:35:22.100Z,1.77
2023-03-29T01:37:42.997Z,2.15
2023-03-29T01:39:45.183Z,3.22
2023-03-29T01:42:02.458Z,3.30
2023-03-29T01:44:10.811Z,1.80
2023-03-29T01:46:31.614Z,2.30
2023-03-29T01:48:39.585Z,1.88
2023-03-29T01:51:04.665Z,3.33
2023-03-29T01:53:11.091Z,1.75
2023-03-29T01:55:17.391Z,1.60
2023-03-29T01:57:20.330Z,2.00
2023-03-29T01:59:24.813Z,1.92
2023-03-29T02:01:30.040Z,1.90
2023-03-29T02:03:33.959Z,1.83
2023-03-29T02:05:37.858Z,2.10
2023-03-29T02:07:40.877Z,2.47
2023-03-29T02:09:43.344Z,1.80
2023-03-29T02:11:45.953Z,1.60
2023-03-29T02:13:48.319Z,2.08
2023-03-29T02:15:50.634Z,2.25
2023-03-29T02:17:53.332Z,4.80
2023-03-29T02:22:04.083Z,1.77
2023-03-29T02:24:08.092Z,2.67
2023-03-29T02:26:10.386Z,3.70
2023-03-29T02:28:12.807Z,1.95
2023-03-29T02:30:17.212Z,1.90
2023-03-29T02:32:25.798Z,1.48
2023-03-29T02:34:40.180Z,2.25
2023-03-29T02:36:48.181Z,4.90
2023-03-29T02:38:50.593Z,3.00
2023-03-29T02:40:53.141Z,3.22
2023-03-29T02:42:56.468Z,2.85
2023-03-29T02:45:00.622Z,1.80
2023-03-29T02:47:12.788Z,1.88
2023-03-29T02:49:15.439Z,1.95
2023-03-29T02:53:27.950Z,2.38
2023-03-29T02:55:34.678Z,1.67
2023-03-29T02:57:38.463Z,2.88
2023-03-29T02:59:43.979Z,2.45
2023-03-29T03:01:46.380Z,2.20
2023-03-29T03:03:50.740Z,2.22
2023-03-29T03:05:53.306Z,1.98
2023-03-29T03:07:55.553Z,2.65
2023-03-29T03:09:57.793Z,1.95
2023-03-29T03:12:00.044Z,2.65
2023-03-29T03:14:02.310Z,2.15
2023-03-29T03:16:04.620Z,2.13
2023-03-29T03:18:06.998Z,2.80
2023-03-29T03:20:12.882Z,2.42
2023-03-29T03:22:15.262Z,2.63
2023-03-29T03:24:17.819Z,2.10
2023-03-29T03:26:20.064Z,3.20
2023-03-29T03:28:22.786Z,2.58
2023-03-29T03:30:25.485Z,2.17
2023-03-29T03:34:29.958Z,2.20
2023-03-29T03:36:34.672Z,2.30
2023-03-29T03:38:37.524Z,1.85
2023-03-29T03:40:39.717Z,2.00
2023-03-29T03:42:42.080Z,3.85
2023-03-29T03:44:44.999Z,2.30
2023-03-29T03:46:47.357Z,1.90
2023-03-29T03:48:49.553Z,2.35
2023-03-29T03:50:53.285Z,1.83
2023-03-29T03:52:55.565Z,2.22
2023-03-29T03:54:57.797Z,1.83
2023-03-29T03:56:59.999Z,1.83
2023-03-29T03:59:02.240Z,1.70
2023-03-29T04:01:05.127Z,2.58
2023-03-29T04:03:07.479Z,2.05
2023-03-29T04:05:09.962Z,1.90
2023-03-29T04:07:14.316Z,2.72
2023-03-29T04:09:18.106Z,1.85
2023-03-29T04:11:20.442Z,1.73
2023-03-29T04:13:22.981Z,1.52
2023-03-29T04:17:29.044Z,1.80
2023-03-29T04:19:31.434Z,2.08
2023-03-29T04:21:34.467Z,2.03
2023-03-29T04:23:37.140Z,1.80
2023-03-29T04:27:41.523Z,2.45
2023-03-29T04:29:46.998Z,3.38
2023-03-29T04:31:49.336Z,2.78
2023-03-29T04:33:51.723Z,2.15
2023-03-29T04:35:53.950Z,2.30
2023-03-29T04:37:56.334Z,1.75
2023-03-29T04:40:00.449Z,2.10
2023-03-29T04:42:03.510Z,1.80
2023-03-29T04:44:06.808Z,1.95
2023-03-29T04:46:09.168Z,2.15
2023-03-29T04:48:11.547Z,1.73
2023-03-29T04:50:14.033Z,2.92
2023-03-29T04:52:16.253Z,3.53
2023-03-29T04:54:18.440Z,3.20
2023-03-29T04:56:20.699Z,2.92
2023-03-29T04:58:25.214Z,4.55
2023-03-29T05:00:29.432Z,2.72
2023-03-29T05:02:32.421Z,3.35
2023-03-29T05:04:35.753Z,2.22
2023-03-29T05:06:38.638Z,2.55
2023-03-29T05:08:40.976Z,2.47
2023-03-29T05:10:43.741Z,2.05
2023-03-29T05:14:49.014Z,2.78
2023-03-29T05:16:51.233Z,1.95
2023-03-29T05:18:54.816Z,2.00
2023-03-29T05:20:57.116Z,4.55
2023-03-29T05:22:59.762Z,2.60
2023-03-29T05:25:01.916Z,5.80
2023-03-29T05:27:04.943Z,3.15
2023-03-29T05:29:08.996Z,4.43
2023-03-29T05:31:11.276Z,2.72
2023-03-29T05:33:13.473Z,1.73
2023-03-29T05:35:16.112Z,3.97
2023-03-29T05:39:21.145Z,2.00
2023-03-29T05:41:24.734Z,1.75
2023-03-29T05:43:27.167Z,2.53
2023-03-29T05:45:29.902Z,2.05
2023-03-29T05:47:32.195Z,2.00
2023-03-29T05:49:34.822Z,6.55
2023-03-29T05:53:39.192Z,2.35
2023-03-29T05:55:42.501Z,2.50
2023-03-29T05:57:44.669Z,2.17
2023-03-29T05:59:46.983Z,2.97
2023-03-29T06:01:49.141Z,3.50
2023-03-29T06:03:52.078Z,1.70
2023-03-29T06:05:58.798Z,2.40
2023-03-29T06:08:01.214Z,3.13
2023-03-29T06:10:04.890Z,1.70
2023-03-29T06:12:07.450Z,1.38
2023-03-29T06:14:09.655Z,1.40
2023-03-29T06:16:13.340Z,1.40
2023-03-29T06:18:15.993Z,2.38
2023-03-29T06:22:20.741Z,1.67
2023-03-29T06:24:24.911Z,2.25
2023-03-29T06:26:27.823Z,1.95
2023-03-29T06:28:30.010Z,3.38
2023-03-29T06:30:32.161Z,1.40
2023-03-29T06:32:35.831Z,1.30
2023-03-29T06:34:38.752Z,1.58
2023-03-29T06:36:40.898Z,1.02
2023-03-29T06:38:45.633Z,3.22
2023-03-29T06:40:48.360Z,2.72
2023-03-29T06:45:00.053Z,2.00
2023-03-29T06:47:02.380Z,2.95
2023-03-29T06:49:04.874Z,2.28
2023-03-29T06:51:07.759Z,2.88
2023-03-29T06:53:10.325Z,2.13
2023-03-29T06:55:13.036Z,3.53
2023-03-29T06:57:15.229Z,4.65
2023-03-29T06:59:18.106Z,3.60
2023-03-29T07:01:20.690Z,4.22
2023-03-29T07:03:23.600Z,4.75
2023-03-29T07:05:29.123Z,4.10
2023-03-29T07:07:51.254Z,2.47
2023-03-29T07:09:56.102Z,1.70
2023-03-29T07:11:59.109Z,1.90
2023-03-29T07:14:02.914Z,2.42
2023-03-29T07:16:05.361Z,2.88
2023-03-29T07:18:08.125Z,3.53
2023-03-29T07:22:16.387Z,1.38
2023-03-29T07:24:20.145Z,3.17
2023-03-29T07:26:28.883Z,1.70
2023-03-29T07:28:32.435Z,1.63
2023-03-29T07:30:34.699Z,1.83
2023-03-29T07:32:37.631Z,2.25
2023-03-29T07:34:39.919Z,1.20
2023-03-29T07:36:43.795Z,2.63
2023-03-29T07:38:46.004Z,2.80
2023-03-29T07:40:48.171Z,1.80
2023-03-29T07:42:52.185Z,2.85
2023-03-29T07:44:54.440Z,1.75
2023-03-29T07:46:58.179Z,2.05
2023-03-29T07:49:00.356Z,5.05
2023-03-29T07:51:02.786Z,3.08
2023-03-29T07:53:05.267Z,2.72
2023-03-29T07:55:08.642Z,2.60
2023-03-29T07:57:11.072Z,1.75
2023-03-29T07:59:13.540Z,3.80
2023-03-29T08:01:18.851Z,2.97
2023-03-29T08:03:21.708Z,1.90
2023-03-29T08:05:37.671Z,3.50
2023-03-29T08:07:44.097Z,4.30
2023-03-29T08:09:46.423Z,1.30
2023-03-29T08:11:48.946Z,2.65
2023-03-29T08:13:51.681Z,2.80
2023-03-29T08:15:53.941Z,1.23
2023-03-29T08:17:56.326Z,1.55
2023-03-29T08:19:58.724Z,1.30
2023-03-29T08:22:01.108Z,2.70
2023-03-29T08:24:03.413Z,1.55
2023-03-29T08:26:05.717Z,3.22
2023-03-29T08:28:07.954Z,1.15
2023-03-29T08:30:10.245Z,4.28
2023-03-29T08:32:12.355Z,1.30
2023-03-29T08:34:14.714Z,2.20
2023-03-29T08:36:16.949Z,2.95
2023-03-29T08:38:19.835Z,2.00
2023-03-29T08:40:27.349Z,1.65
2023-03-29T08:42:41.879Z,2.45
2023-03-29T08:44:46.939Z,1.63
2023-03-29T08:47:04.352Z,1.88
2023-03-29T08:49:07.300Z,3.83
2023-03-29T08:51:29.805Z,1.50
2023-03-29T08:53:37.559Z,2.90
2023-03-29T08:55:42.274Z,5.32
2023-03-29T08:57:46.014Z,1.73
2023-03-29T08:59:50.840Z,1.83
2023-03-29T09:01:54.660Z,1.63
2023-03-29T09:04:09.801Z,1.50
2023-03-29T09:06:12.884Z,1.30
2023-03-29T09:08:17.548Z,5.03
2023-03-29T09:10:22.345Z,4.25
2023-03-29T09:12:43.746Z,1.35
2023-03-29T09:14:48.686Z,1.65
2023-03-29T09:16:50.878Z,1.30
2023-03-29T09:18:59.006Z,2.28
2023-03-29T09:21:03.128Z,2.35
2023-03-29T09:23:05.461Z,3.03
2023-03-29T09:25:24.219Z,3.20
2023-03-29T09:27:28.407Z,2.83
2023-03-29T09:29:37.325Z,2.45
2023-03-29T09:31:43.465Z,2.85
2023-03-29T09:33:49.772Z,1.65
2023-03-29T09:35:59.336Z,1.70
2023-03-29T09:38:01.638Z,2.85
2023-03-29T09:40:05.866Z,3.78
2023-03-29T09:42:09.327Z,2.13
2023-03-29T09:44:29.856Z,4.07
2023-03-29T09:46:39.290Z,3.60
2023-03-29T09:48:42.020Z,2.47
2023-03-29T09:52:46.496Z,2.08
2023-03-29T09:54:48.914Z,1.50
2023-03-29T09:56:52.619Z,3.10
2023-03-29T09:58:55.019Z,1.85
2023-03-29T10:01:01.697Z,3.05
2023-03-29T10:03:04.449Z,2.53
2023-03-29T10:05:07.583Z,1.38
2023-03-29T10:07:10.464Z,3.42
2023-03-29T10:09:16.877Z,1.23
2023-03-29T10:11:23.515Z,2.95
2023-03-29T10:13:30.667Z,3.60
2023-03-29T10:15:32.992Z,3.55
2023-03-29T10:17:40.351Z,5.70
2023-03-29T10:19:48.293Z,2.88
2023-03-29T10:21:52.841Z,4.40
2023-03-29T10:24:01.917Z,1.23
2023-03-29T10:26:06.813Z,1.13
2023-03-29T10:28:12.502Z,5.10
2023-03-29T10:30:24.714Z,3.75
2023-03-29T10:32:34.241Z,2.67
2023-03-29T10:34:37.108Z,2.38
2023-03-29T10:38:41.443Z,1.30
2023-03-29T10:40:44.036Z,3.55
2023-03-29T10:42:50.263Z,2.17
2023-03-29T10:44:56.590Z,2.45
2023-03-29T10:47:08.141Z,3.70
2023-03-29T10:49:20.435Z,2.90
2023-03-29T10:51:24.237Z,3.03
2023-03-29T10:53:31.204Z,2.22
2023-03-29T10:55:35.674Z,1.63
2023-03-29T10:57:42.028Z,1.52
2023-03-29T11:00:10.843Z,2.33
2023-03-29T11:02:17.083Z,1.77
2023-03-29T11:04:27.464Z,1.45
2023-03-29T11:06:36.073Z,2.15
2023-03-29T11:08:47.060Z,3.55
2023-03-29T11:10:52.741Z,2.05
2023-03-29T11:13:03.816Z,3.63
2023-03-29T11:15:06.697Z,3.33
2023-03-29T11:17:31.657Z,1.92
2023-03-29T11:19:48.870Z,4.22
2023-03-29T11:21:56.161Z,4.65
2023-03-29T11:24:01.735Z,3.40
2023-03-29T11:26:12.624Z,1.80
2023-03-29T11:28:23.890Z,1.25
2023-03-29T11:30:30.851Z,1.83
2023-03-29T11:32:47.547Z,2.15
2023-03-29T11:34:55.526Z,3.85
2023-03-29T11:36:57.766Z,1.75
2023-03-29T11:39:18.512Z,1.40
2023-03-29T11:41:26.147Z,1.98
2023-03-29T11:43:34.145Z,2.15
2023-03-29T11:45:39.908Z,3.65
2023-03-29T11:47:44.497Z,3.17
2023-03-29T11:49:53.108Z,2.13
2023-03-29T11:52:03.108Z,2.28
2023-03-29T11:54:08.477Z,2.50
2023-03-29T11:56:15.988Z,4.35
2023-03-29T11:58:18.249Z,2.30
2023-03-29T12:00:41.112Z,3.30
2023-03-29T12:02:47.898Z,3.25
2023-03-29T12:04:52.409Z,3.83
2023-03-29T12:07:04.485Z,2.40
2023-03-29T12:09:21.585Z,3.20
2023-03-29T12:11:29.034Z,3.58
2023-03-29T12:13:32.525Z,2.80
2023-03-29T12:15:41.135Z,1.88
2023-03-29T12:17:52.427Z,5.15
2023-03-29T12:20:11.988Z,2.08
2023-03-29T12:22:14.111Z,2.63
2023-03-29T12:24:17.715Z,3.60
2023-03-29T12:26:40.381Z,2.95
2023-03-29T12:28:54.337Z,2.65
2023-03-29T12:30:59.255Z,0.82
2023-03-29T12:33:04.382Z,2.58
2023-03-29T12:35:09.550Z,4.30
2023-03-29T12:37:32.048Z,3.33
2023-03-29T12:39:34.366Z,1.03
2023-03-29T12:41:37.997Z,3.17
2023-03-29T12:43:43.441Z,4.15
2023-03-29T12:45:51.085Z,2.65
2023-03-29T12:47:53.635Z,1.65
2023-03-29T12:49:57.510Z,1.58
2023-03-29T12:52:00.640Z,2.55
2023-03-29T12:54:07.341Z,2.08
2023-03-29T12:56:11.656Z,4.70
2023-03-29T12:58:32.425Z,1.75
2023-03-29T13:00:34.635Z,4.25
2023-03-29T13:02:38.016Z,5.38
2023-03-29T13:04:43.583Z,2.40
2023-03-29T13:06:53.714Z,1.55
2023-03-29T13:09:05.055Z,2.42
2023-03-29T13:11:08.067Z,3.97
2023-03-29T13:13:13.137Z,3.17
2023-03-29T13:15:16.649Z,4.35
2023-03-29T13:17:25.258Z,2.95
2023-03-29T13:19:30.576Z,4.25
2023-03-29T13:21:37.841Z,2.97
2023-03-29T13:23:43.025Z,1.95
2023-03-29T13:25:47.974Z,2.40
2023-03-29T13:27:56.278Z,2.35
2023-03-29T13:29:58.728Z,1.75
2023-03-29T13:32:04.029Z,3.08
2023-03-29T13:34:18.400Z,3.65
2023-03-29T13:36:31.875Z,4.60
2023-03-29T13:38:44.621Z,4.70
2023-03-29T13:40:58.023Z,2.90
2023-03-29T13:43:02.008Z,4.38
2023-03-29T13:45:13.507Z,1.98
2023-03-29T13:47:29.297Z,5.10
2023-03-29T13:49:33.076Z,1.50
2023-03-29T13:51:39.102Z,1.35
2023-03-29T13:53:44.982Z,6.07
2023-03-29T13:55:49.322Z,2.42
2023-03-29T13:58:01.421Z,3.03
2023-03-29T14:00:17.785Z,2.92
2023-03-29T14:02:32.032Z,2.75
2023-03-29T14:04:38.436Z,4.03
2023-03-29T14:06:42.378Z,1.67
2023-03-29T14:08:45.366Z,2.42
2023-03-29T14:10:47.797Z,3.70
2023-03-29T14:12:50.245Z,2.72
2023-03-29T14:14:59.218Z,3.25
2023-03-29T14:17:01.915Z,2.17
2023-03-29T14:19:13.442Z,2.90
2023-03-29T14:21:15.798Z,3.13
2023-03-29T14:23:21.248Z,1.58
2023-03-29T14:25:24.448Z,5.05
2023-03-29T14:27:30.437Z,2.67
2023-03-29T14:29:35.775Z,4.05
2023-03-29T14:31:39.649Z,1.90
2023-03-29T14:33:41.917Z,2.78
2023-03-29T14:35:44.214Z,1.55
2023-03-29T14:37:46.883Z,2.17
2023-03-29T14:39:50.132Z,3.72
2023-03-29T14:41:53.472Z,2.13
2023-03-29T14:43:55.803Z,3.40
2023-03-29T14:45:58.879Z,2.45
2023-03-29T14:48:01.658Z,3.00
2023-03-29T14:52:06.705Z,2.33
2023-03-29T14:54:11.046Z,3.55
2023-03-29T14:56:15.736Z,1.45
2023-03-29T14:58:21.991Z,2.53
2023-03-29T15:00:42.482Z,4.68
2023-03-29T15:02:54.101Z,2.58
2023-03-29T15:05:03.616Z,5.05
2023-03-29T15:07:05.932Z,2.97
2023-03-29T15:09:09.234Z,3.97
2023-03-29T15:11:23.235Z,2.78
2023-03-29T15:13:26.085Z,4.97
2023-03-29T15:17:42.675Z,3.92
2023-03-29T15:19:54.018Z,5.13
2023-03-29T15:21:56.324Z,2.25
2023-03-29T15:23:59.290Z,4.15
2023-03-29T15:26:10.644Z,2.42
2023-03-29T15:28:28.277Z,4.00
2023-03-29T15:30:38.876Z,5.00
2023-03-29T15:32:41.808Z,3.65
2023-03-29T15:34:44.114Z,4.55
2023-03-29T15:36:47.355Z,2.17
2023-03-29T15:38:50.613Z,4.03
2023-03-29T15:40:52.876Z,4.75
2023-03-29T15:42:56.088Z,3.25
2023-03-29T15:44:58.256Z,2.85
2023-03-29T15:47:00.599Z,2.03
2023-03-29T15:49:03.000Z,1.27
2023-03-29T15:51:06.934Z,5.65
2023-03-29T15:53:15.186Z,5.40
2023-03-29T15:55:18.561Z,2.58
2023-03-29T15:57:20.923Z,2.50
2023-03-29T15:59:23.569Z,2.25
2023-03-29T16:01:33.873Z,4.25
2023-03-29T16:03:36.164Z,3.88
2023-03-29T16:05:38.308Z,4.30
2023-03-29T16:07:40.712Z,1.45
2023-03-29T16:09:42.907Z,3.17
2023-03-29T16:11:46.201Z,2.78
2023-03-29T16:13:48.643Z,3.83
2023-03-29T16:15:51.425Z,3.47
2023-03-29T16:19:55.841Z,3.25
2023-03-29T16:21:58.680Z,4.47
2023-03-29T16:26:03.387Z,2.75
2023-03-29T16:28:06.070Z,5.38
2023-03-29T16:32:11.322Z,6.10
2023-03-29T16:34:13.924Z,6.50
2023-03-29T16:36:16.140Z,6.60
2023-03-29T16:38:18.583Z,8.10
2023-03-29T16:40:21.143Z,9.20
2023-03-29T16:42:23.333Z,6.55
2023-03-29T16:44:27.827Z,5.32
2023-03-29T16:46:30.737Z,6.20
2023-03-29T16:48:32.968Z,9.10
2023-03-29T16:50:35.197Z,5.47
2023-03-29T16:52:37.868Z,5.22
2023-03-29T16:54:40.153Z,4.82
2023-03-29T16:56:42.547Z,3.05
2023-03-29T16:58:44.987Z,7.82
2023-03-29T17:00:48.582Z,5.38
2023-03-29T17:02:51.076Z,5.82
2023-03-29T17:04:53.378Z,3.88
2023-03-29T17:06:56.984Z,4.45
2023-03-29T17:08:59.356Z,4.35
2023-03-29T17:11:01.649Z,4.90
2023-03-29T17:13:03.960Z,4.22
2023-03-29T17:15:07.692Z,5.80
2023-03-29T17:17:10.012Z,8.18
2023-03-29T17:19:12.227Z,5.75
2023-03-29T17:21:14.624Z,4.03
2023-03-29T17:23:16.811Z,6.22
2023-03-29T17:25:19.180Z,9.00
2023-03-29T17:27:21.547Z,14.35
2023-03-29T17:29:23.749Z,7.45
2023-03-29T17:31:26.116Z,6.47
2023-03-29T17:33:28.401Z,8.45
2023-03-29T17:35:30.683Z,7.55
2023-03-29T17:37:32.902Z,6.70
2023-03-29T17:39:37.642Z,6.55
2023-03-29T17:41:40.155Z,5.55
2023-03-29T17:43:42.374Z,4.78
2023-03-29T17:45:44.749Z,9.55
2023-03-29T17:47:47.097Z,5.88
2023-03-29T17:49:49.746Z,7.00
2023-03-29T17:51:52.017Z,7.82
2023-03-29T17:53:54.907Z,9.30
2023-03-29T17:55:57.113Z,14.93
2023-03-29T17:57:59.386Z,12.95
2023-03-29T18:00:01.506Z,14.52
2023-03-29T18:02:05.584Z,10.15
2023-03-29T18:04:07.944Z,18.40
2023-03-29T18:06:10.320Z,13.52
2023-03-29T18:08:13.627Z,13.10
2023-03-29T18:10:16.247Z,14.73
2023-03-29T18:12:18.593Z,9.57
2023-03-29T18:14:21.465Z,15.73
2023-03-29T18:16:24.038Z,9.10
2023-03-29T18:18:27.213Z,14.52
2023-03-29T18:20:29.543Z,14.75
2023-03-29T18:22:34.170Z,8.82
2023-03-29T18:24:36.303Z,11.30
2023-03-29T18:26:38.704Z,10.98
2023-03-29T18:28:41.666Z,12.70
2023-03-29T18:30:43.898Z,11.45
2023-03-29T18:32:46.512Z,12.63
2023-03-29T18:34:48.801Z,11.30
2023-03-29T18:36:51.020Z,13.13
2023-03-29T18:38:55.785Z,12.63
2023-03-29T18:40:58.014Z,7.85
2023-03-29T18:43:00.627Z,12.50
2023-03-29T18:45:04.402Z,12.40
2023-03-29T18:47:07.303Z,9.48
2023-03-29T18:49:09.686Z,9.85
2023-03-29T18:51:12.645Z,11.18
2023-03-29T18:53:15.597Z,7.32
2023-03-29T18:55:17.792Z,9.65
2023-03-29T18:57:21.444Z,9.80
2023-03-29T18:59:23.614Z,9.63
2023-03-29T19:01:25.839Z,9.85
2023-03-29T19:03:28.215Z,8.45
2023-03-29T19:05:31.180Z,10.55
2023-03-29T19:07:33.331Z,13.40
2023-03-29T19:09:35.892Z,11.65
2023-03-29T19:11:38.179Z,6.25
2023-03-29T19:13:40.464Z,7.18
2023-03-29T19:15:42.796Z,8.00
2023-03-29T19:17:45.080Z,10.48
2023-03-29T19:19:47.318Z,15.00
2023-03-29T19:21:50.007Z,10.70
2023-03-29T19:23:52.927Z,10.50
2023-03-29T19:25:56.142Z,10.80
2023-03-29T19:27:58.753Z,11.05
2023-03-29T19:30:01.116Z,10.18
2023-03-29T19:32:03.494Z,11.13
2023-03-29T19:34:07.103Z,6.20
2023-03-29T19:36:09.517Z,5.25
2023-03-29T19:38:11.751Z,8.60
2023-03-29T19:40:14.372Z,13.13
2023-03-29T19:42:16.528Z,9.23
2023-03-29T19:44:19.978Z,15.30
2023-03-29T19:46:22.429Z,6.47
2023-03-29T19:48:24.934Z,9.55
2023-03-29T19:50:27.178Z,8.35
2023-03-29T19:52:30.297Z,8.55
2023-03-29T19:54:32.760Z,8.23
2023-03-29T19:56:35.024Z,6.32
2023-03-29T19:58:37.742Z,8.18
2023-03-29T20:02:42.526Z,11.98
2023-03-29T20:06:47.928Z,8.27
2023-03-29T20:08:50.404Z,10.30
2023-03-29T20:11:07.362Z,8.15
2023-03-29T20:13:09.723Z,8.10
2023-03-29T20:15:12.082Z,9.18
2023-03-29T20:17:14.314Z,8.32
2023-03-29T20:19:17.815Z,10.15
2023-03-29T20:21:20.510Z,9.85
2023-03-29T20:23:22.731Z,7.63
2023-03-29T20:25:25.841Z,7.38
2023-03-29T20:27:29.446Z,6.93
2023-03-29T20:29:33.233Z,8.82
2023-03-29T20:31:35.508Z,7.18
2023-03-29T20:33:38.028Z,7.30
2023-03-29T20:35:40.639Z,8.88
2023-03-29T20:37:42.824Z,6.95
2023-03-29T20:39:45.236Z,5.60
2023-03-29T20:41:47.809Z,8.57
2023-03-29T20:46:00.383Z,8.82
2023-03-29T20:48:03.666Z,8.52
2023-03-29T20:50:07.760Z,12.23
2023-03-29T20:52:15.611Z,7.43
2023-03-29T20:54:18.247Z,8.65
2023-03-29T20:56:20.921Z,9.45
2023-03-29T20:58:23.924Z,8.50
2023-03-29T21:00:27.328Z,10.00
2023-03-29T21:02:29.564Z,7.53
2023-03-29T21:04:31.942Z,7.78
2023-03-29T21:06:34.096Z,9.07
2023-03-29T21:08:38.684Z,7.22
2023-03-29T21:10:42.482Z,9.75
2023-03-29T21:12:44.634Z,5.35
2023-03-29T21:14:47.456Z,6.03
2023-03-29T21:16:50.103Z,7.25
2023-03-29T21:18:52.409Z,9.23
2023-03-29T21:20:54.508Z,11.48
2023-03-29T21:22:56.637Z,7.95
2023-03-29T21:24:58.776Z,7.85
2023-03-29T21:27:01.273Z,4.82
2023-03-29T21:29:03.846Z,8.30
2023-03-29T21:31:06.950Z,11.38
2023-03-29T21:33:09.396Z,8.25
2023-03-29T21:35:11.773Z,13.07
2023-03-29T21:37:15.277Z,4.90
2023-03-29T21:39:17.646Z,7.40
2023-03-29T21:41:19.900Z,10.25
2023-03-29T21:43:22.092Z,7.38
2023-03-29T21:45:24.342Z,7.00
2023-03-29T21:47:26.630Z,8.75
2023-03-29T21:49:28.843Z,8.80
2023-03-29T21:51:31.022Z,8.88
2023-03-29T21:53:33.191Z,4.88
2023-03-29T21:55:38.393Z,7.80
2023-03-29T21:57:40.695Z,8.68
2023-03-29T21:59:42.881Z,11.10
2023-03-29T22:01:45.139Z,8.50
2023-03-29T22:03:47.629Z,7.55
2023-03-29T22:05:57.192Z,6.93
2023-03-29T22:08:00.382Z,7.30
2023-03-29T22:10:05.643Z,9.10
2023-03-29T22:12:08.023Z,6.47
2023-03-29T22:14:10.189Z,7.00
2023-03-29T22:16:19.271Z,7.95
2023-03-29T22:18:21.699Z,6.13
2023-03-29T22:20:24.377Z,6.78
2023-03-29T22:22:26.660Z,10.80
2023-03-29T22:24:29.225Z,8.57
2023-03-29T22:26:32.452Z,7.25
2023-03-29T22:28:36.702Z,6.00
2023-03-29T22:30:38.967Z,8.07
2023-03-29T22:32:41.205Z,4.97
2023-03-29T22:34:43.466Z,9.68
2023-03-29T22:36:45.788Z,9.23
2023-03-29T22:38:48.494Z,7.25
2023-03-29T22:42:53.101Z,7.07
2023-03-29T22:44:55.472Z,8.82
2023-03-29T22:46:57.757Z,10.20
2023-03-29T22:49:00.286Z,5.97
2023-03-29T22:51:02.765Z,8.90
2023-03-29T22:55:07.552Z,5.70
2023-03-29T22:57:09.841Z,5.45
2023-03-29T22:59:12.173Z,8.68
2023-03-29T23:01:14.469Z,6.78
2023-03-29T23:03:16.803Z,2.90
2023-03-29T23:05:18.984Z,5.40
2023-03-29T23:07:21.291Z,5.60
2023-03-29T23:09:23.573Z,10.77
2023-03-29T23:11:26.225Z,8.20
2023-03-29T23:13:33.401Z,4.35
2023-03-29T23:15:42.774Z,8.23
2023-03-29T23:17:45.458Z,8.02
2023-03-29T23:19:48.260Z,4.75
2023-03-29T23:21:50.555Z,8.20
2023-03-29T23:23:53.027Z,10.57
2023-03-29T23:25:56.085Z,5.60
2023-03-29T23:27:58.629Z,7.43
2023-03-29T23:30:01.587Z,6.70
2023-03-29T23:32:04.268Z,9.80
2023-03-29T23:36:10.061Z,8.98
2023-03-29T23:38:12.275Z,11.00
2023-03-29T23:40:15.618Z,7.45
2023-03-29T23:42:17.836Z,4.57
2023-03-29T23:44:19.970Z,6.00
2023-03-29T23:46:22.149Z,10.07
2023-03-29T23:48:24.820Z,6.32
2023-03-29T23:50:28.718Z,8.30
2023-03-29T23:52:32.788Z,6.05
2023-03-29T23:54:35.231Z,6.82
2023-03-29T23:56:37.555Z,6.60
2023-03-29T23:58:39.739Z,8.65
